Time;durP1;ratioP1;P1;durP2;ratioP2;P2;SDS_P1;SDS_P2;PMS_P1;PMS_P2;Temp;Humidity;BMP_temperature;BMP_pressure;BME280_temperature;BME280_humidity;BME280_pressure;Samples;Min_cycle;Max_cycle;Signal;HPM_P1;HPM_P2
2023/04/17 00:01:48;;;;;;;40.50;33.45;;;;;;;8.79;96.64;102448.34;5089683;28;20498;-57
2023/04/17 00:04:14;;;;;;;38.08;33.92;;;;;;;8.81;96.44;102451.84;5091651;28;20024;-58
2023/04/17 00:06:42;;;;;;;42.22;35.30;;;;;;;8.84;96.26;102446.44;5091638;28;20177;-58
2023/04/17 00:09:08;;;;;;;39.55;35.30;;;;;;;8.87;96.56;102451.66;5090552;28;20020;-58
2023/04/17 00:11:33;;;;;;;38.15;33.60;;;;;;;8.95;95.61;102446.13;5089825;28;20020;-58
2023/04/17 00:13:59;;;;;;;44.78;37.15;;;;;;;8.89;96.37;102456.06;5090086;28;20024;-58
2023/04/17 00:16:25;;;;;;;41.72;36.33;;;;;;;8.87;96.41;102449.00;5090767;28;20025;-58
2023/04/17 00:18:52;;;;;;;40.63;35.22;;;;;;;8.81;96.13;102449.19;5090135;28;20081;-58
2023/04/17 00:21:17;;;;;;;43.22;36.17;;;;;;;8.90;96.62;102450.69;5090181;28;20016;-58
2023/04/17 00:23:42;;;;;;;41.40;36.78;;;;;;;8.89;96.43;102446.31;5091322;28;20024;-58
2023/04/17 00:26:08;;;;;;;43.90;37.03;;;;;;;8.86;96.55;102433.16;5091081;28;20009;-58
2023/04/17 00:28:33;;;;;;;46.30;35.75;;;;;;;8.96;95.99;102439.91;5090216;28;20054;-58
2023/04/17 00:30:58;;;;;;;44.28;37.83;;;;;;;8.87;96.27;102434.88;5090783;28;20102;-58
2023/04/17 00:33:24;;;;;;;42.08;36.35;;;;;;;8.87;96.40;102438.38;5091430;28;20493;-58
2023/04/17 00:35:50;;;;;;;44.95;37.97;;;;;;;8.82;96.31;102439.44;5090960;28;20032;-58
2023/04/17 00:38:16;;;;;;;46.53;36.08;;;;;;;8.87;96.68;102427.78;5092789;28;20016;-58
2023/04/17 00:40:44;;;;;;;43.75;36.55;;;;;;;8.81;95.95;102430.63;5094750;28;20020;-58
2023/04/17 00:43:09;;;;;;;42.33;35.85;;;;;;;8.88;96.24;102418.03;5095385;28;20020;-58
2023/04/17 00:45:37;;;;;;;43.03;35.25;;;;;;;8.88;96.21;102426.00;5094581;28;20392;-58
2023/04/17 00:48:05;;;;;;;43.80;34.47;;;;;;;8.81;95.90;102416.50;5094827;28;20038;-58
2023/04/17 00:50:32;;;;;;;40.70;35.30;;;;;;;8.80;96.03;102414.78;5094794;28;20107;-58
2023/04/17 00:52:58;;;;;;;40.20;34.85;;;;;;;8.90;95.56;102420.66;5094914;28;20448;-58
2023/04/17 00:55:25;;;;;;;40.38;35.90;;;;;;;8.84;95.56;102424.34;5094177;28;20047;-58
2023/04/17 00:57:50;;;;;;;39.13;34.92;;;;;;;8.75;95.84;102406.06;5098559;28;20110;-58
2023/04/17 01:00:17;;;;;;;41.10;36.55;;;;;;;8.83;95.98;102423.50;5099925;28;20542;-58
2023/04/17 01:02:45;;;;;;;38.80;34.67;;;;;;;8.79;95.84;102426.28;5113471;28;20516;-58
2023/04/17 01:05:11;;;;;;;41.20;35.42;;;;;;;8.80;95.79;102415.63;5110201;28;20114;-58
2023/04/17 01:07:38;;;;;;;43.30;35.67;;;;;;;8.76;95.75;102424.56;5109399;28;20028;-58
2023/04/17 01:10:04;;;;;;;39.20;34.03;;;;;;;8.69;95.67;102423.03;5076090;28;20116;-58
2023/04/17 01:12:30;;;;;;;39.25;33.63;;;;;;;8.74;95.58;102420.25;5097661;28;20494;-58
2023/04/17 01:14:56;;;;;;;38.13;33.90;;;;;;;8.81;95.75;102427.09;5103701;28;20151;-58
2023/04/17 01:17:25;;;;;;;39.47;33.58;;;;;;;8.84;95.31;102427.00;5093675;28;20127;-58
2023/04/17 01:19:51;;;;;;;38.95;33.75;;;;;;;8.74;95.34;102425.56;5094067;28;20069;-58
2023/04/17 01:22:19;;;;;;;43.95;34.63;;;;;;;8.78;95.35;102427.19;5093327;28;20035;-58
2023/04/17 01:24:45;;;;;;;38.97;33.95;;;;;;;8.75;95.50;102432.59;5094105;28;20045;-58
2023/04/17 01:27:12;;;;;;;39.13;34.90;;;;;;;8.69;95.49;102427.47;5094400;28;20012;-58
2023/04/17 01:29:38;;;;;;;40.28;35.85;;;;;;;8.68;95.36;102431.03;5092969;28;20395;-58
2023/04/17 01:32:04;;;;;;;39.55;35.35;;;;;;;8.54;96.04;102416.41;5095517;28;20032;-58
2023/04/17 01:34:29;;;;;;;42.83;35.30;;;;;;;8.69;96.14;102433.66;5092671;28;20035;-58
2023/04/17 01:36:55;;;;;;;41.72;35.33;;;;;;;8.68;95.17;102425.72;5093289;28;20020;-58
2023/04/17 01:39:20;;;;;;;41.85;34.92;;;;;;;8.71;95.28;102436.28;5092550;28;20185;-58
2023/04/17 01:41:46;;;;;;;40.00;34.17;;;;;;;8.79;94.82;102428.94;5093664;28;20020;-58
2023/04/17 01:44:11;;;;;;;39.72;34.53;;;;;;;8.62;95.04;102430.31;5094215;28;20055;-58
2023/04/17 01:46:36;;;;;;;38.78;34.72;;;;;;;8.70;95.21;102424.75;5093228;28;20027;-57
2023/04/17 01:49:02;;;;;;;36.75;32.63;;;;;;;8.68;95.09;102431.91;5092778;28;20024;-58
2023/04/17 01:51:27;;;;;;;38.90;33.50;;;;;;;8.54;95.03;102416.41;5093271;28;20082;-58
2023/04/17 01:53:53;;;;;;;40.17;34.78;;;;;;;8.55;95.25;102419.91;5092353;28;20028;-58
2023/04/17 01:56:18;;;;;;;38.38;34.28;;;;;;;8.60;95.56;102424.19;5093209;28;20027;-58
2023/04/17 01:58:46;;;;;;;38.80;34.60;;;;;;;8.58;95.16;102426.00;5093554;28;20368;-58
2023/04/17 02:01:12;;;;;;;39.70;33.47;;;;;;;8.53;95.74;102435.00;5093264;28;20454;-58
2023/04/17 02:03:38;;;;;;;37.33;33.30;;;;;;;8.55;95.37;102435.81;5075546;28;20127;-58
2023/04/17 02:06:03;;;;;;;37.15;32.83;;;;;;;8.55;95.91;102436.69;5092983;28;20449;-58
2023/04/17 02:08:29;;;;;;;41.60;34.22;;;;;;;8.44;96.21;102430.81;5093312;28;20030;-58
2023/04/17 02:10:54;;;;;;;38.38;33.33;;;;;;;8.41;96.70;102428.25;5093119;28;20008;-58
2023/04/17 02:13:20;;;;;;;38.55;33.35;;;;;;;8.41;96.68;102434.47;5091815;28;20478;-58
2023/04/17 02:15:45;;;;;;;37.92;33.95;;;;;;;8.42;96.54;102435.31;5092482;28;20028;-58
2023/04/17 02:18:11;;;;;;;37.72;33.05;;;;;;;8.38;95.56;102429.25;5093446;28;20081;-58
2023/04/17 02:20:37;;;;;;;38.00;32.78;;;;;;;8.41;95.59;102426.50;5092817;28;20055;-58
2023/04/17 02:23:04;;;;;;;36.85;31.95;;;;;;;8.34;95.69;102432.84;5091682;28;20125;-58
2023/04/17 02:25:30;;;;;;;38.38;33.72;;;;;;;8.33;95.65;102425.81;5092830;28;20030;-58
2023/04/17 02:27:56;;;;;;;36.65;32.72;;;;;;;8.25;95.40;102419.84;5092841;28;20091;-58
2023/04/17 02:30:22;;;;;;;38.55;33.25;;;;;;;8.28;95.55;102429.50;5092163;28;20028;-58
2023/04/17 02:32:53;;;;;;;37.63;32.15;;;;;;;8.27;95.45;102435.72;5091502;28;20467;-58
2023/04/17 02:35:25;;;;;;;36.35;32.50;;;;;;;8.45;95.63;102429.94;5092184;28;20051;-58
2023/04/17 02:37:50;;;;;;;36.95;33.20;;;;;;;8.43;95.53;102426.44;5094587;28;20020;-58
2023/04/17 02:40:16;;;;;;;35.50;31.60;;;;;;;8.53;94.94;102433.25;5093161;28;20059;-58
2023/04/17 02:42:42;;;;;;;38.08;34.20;;;;;;;8.49;95.34;102428.06;5112105;28;20015;-58
2023/04/17 02:45:10;;;;;;;36.60;32.78;;;;;;;8.56;94.60;102433.16;5111936;28;20402;-58
2023/04/17 02:47:36;;;;;;;37.38;33.58;;;;;;;8.49;95.02;102436.00;5111364;28;20513;-58
2023/04/17 02:50:02;;;;;;;38.85;34.53;;;;;;;8.48;94.74;102429.84;5108463;28;20391;-58
2023/04/17 02:52:29;;;;;;;36.22;32.38;;;;;;;8.54;95.14;102434.09;5110286;28;20027;-58
2023/04/17 02:54:55;;;;;;;38.13;34.10;;;;;;;8.41;94.89;102429.16;5107548;28;20057;-58
2023/04/17 02:57:24;;;;;;;38.53;34.03;;;;;;;8.40;95.47;102430.06;5111450;28;20031;-58
2023/04/17 02:59:50;;;;;;;37.80;33.90;;;;;;;8.52;95.71;102441.22;5111325;28;20057;-58
2023/04/17 03:02:20;;;;;;;39.65;35.35;;;;;;;8.44;95.73;102443.22;5109523;28;20293;-56
2023/04/17 03:04:49;;;;;;;39.42;35.15;;;;;;;8.36;95.98;102433.69;5111537;28;20516;-58
2023/04/17 03:07:17;;;;;;;40.17;35.97;;;;;;;8.35;96.31;102436.34;5111144;28;20469;-58
2023/04/17 03:09:46;;;;;;;38.08;33.90;;;;;;;8.39;96.26;102438.94;5112681;28;20112;-58
2023/04/17 03:12:15;;;;;;;43.47;37.30;;;;;;;8.30;96.40;102441.81;5083373;28;20024;-58
2023/04/17 03:14:41;;;;;;;46.33;38.20;;;;;;;8.26;97.33;102433.97;5111653;28;20019;-58
2023/04/17 03:17:08;;;;;;;42.63;37.15;;;;;;;8.33;97.13;102435.56;5110610;28;20557;-58
2023/04/17 03:19:33;;;;;;;49.55;38.22;;;;;;;8.22;97.77;102430.53;5110772;28;20023;-58
2023/04/17 03:22:00;;;;;;;49.13;39.35;;;;;;;8.23;98.12;102439.34;5109429;28;20019;-58
2023/04/17 03:24:26;;;;;;;47.70;41.75;;;;;;;8.23;98.14;102444.66;5105973;28;20027;-58
2023/04/17 03:26:51;;;;;;;50.05;41.00;;;;;;;8.27;98.01;102444.53;5111098;28;20497;-58
2023/04/17 03:29:17;;;;;;;43.88;38.33;;;;;;;8.34;97.82;102443.44;5110048;28;20536;-58
2023/04/17 03:31:42;;;;;;;46.75;40.13;;;;;;;8.37;97.71;102439.84;5109311;28;20020;-58
2023/04/17 03:34:08;;;;;;;51.38;40.33;;;;;;;8.34;97.80;102439.94;5109342;28;20015;-58
2023/04/17 03:36:33;;;;;;;50.38;38.92;;;;;;;8.31;97.61;102440.88;5110694;28;20015;-58
2023/04/17 03:38:58;;;;;;;49.60;38.85;;;;;;;8.33;97.79;102439.06;5091300;28;20066;-58
2023/04/17 03:41:26;;;;;;;48.70;37.70;;;;;;;8.41;97.72;102438.88;5105738;28;20102;-58
2023/04/17 03:43:52;;;;;;;49.67;40.17;;;;;;;8.29;97.82;102440.06;5111242;28;20023;-58
2023/04/17 03:46:17;;;;;;;46.50;37.88;;;;;;;8.32;97.86;102434.66;5110038;28;20027;-58
2023/04/17 03:48:43;;;;;;;47.92;38.33;;;;;;;8.36;97.71;102435.47;5109554;28;20019;-58
2023/04/17 03:51:08;;;;;;;45.97;38.63;;;;;;;8.41;97.26;102429.16;5112223;28;20387;-57
2023/04/17 03:53:36;;;;;;;46.55;38.97;;;;;;;8.38;97.40;102438.91;5095772;28;20039;-58
2023/04/17 03:56:02;;;;;;;46.05;40.10;;;;;;;8.33;97.72;102431.13;5091428;28;20024;-58
2023/04/17 03:58:29;;;;;;;47.80;38.55;;;;;;;8.29;97.91;102434.75;5107329;28;20048;-58
2023/04/17 04:00:57;;;;;;;47.85;38.40;;;;;;;8.27;97.99;102436.59;5107554;28;20118;-58
2023/04/17 04:03:23;;;;;;;44.95;38.58;;;;;;;8.29;98.17;102437.41;5096701;28;20040;-58
2023/04/17 04:05:48;;;;;;;48.13;39.88;;;;;;;8.15;98.81;102434.28;5087963;28;20020;-58
2023/04/17 04:08:16;;;;;;;45.40;39.53;;;;;;;8.11;98.84;102438.78;5091575;28;20544;-58
2023/04/17 04:10:44;;;;;;;49.45;40.35;;;;;;;8.10;99.38;102436.19;5091322;28;20016;-58
2023/04/17 04:13:10;;;;;;;43.60;38.85;;;;;;;8.09;99.31;102439.72;5097446;28;20023;-58
2023/04/17 04:15:36;;;;;;;46.33;40.25;;;;;;;8.03;99.60;102435.50;5115324;28;20015;-58
2023/04/17 04:18:01;;;;;;;47.28;39.65;;;;;;;8.01;99.85;102436.44;5113657;28;20497;-58
2023/04/17 04:20:27;;;;;;;45.75;39.42;;;;;;;8.03;99.78;102429.28;5106323;28;20027;-58
2023/04/17 04:22:56;;;;;;;47.05;38.53;;;;;;;8.12;99.54;102440.53;5094197;28;20016;-58
2023/04/17 04:25:25;;;;;;;45.45;39.05;;;;;;;8.08;100.00;102433.56;5095262;28;20103;-58
2023/04/17 04:27:51;;;;;;;44.88;39.22;;;;;;;8.09;99.81;102443.28;5095014;28;20027;-58
2023/04/17 04:30:20;;;;;;;50.40;39.08;;;;;;;8.03;99.93;102434.59;5095204;28;20028;-58
2023/04/17 04:32:46;;;;;;;46.80;40.60;;;;;;;8.01;100.00;102444.38;5095106;28;20016;-57
2023/04/17 04:35:12;;;;;;;42.08;37.50;;;;;;;8.04;100.00;102447.81;5095322;28;20392;-58
2023/04/17 04:37:41;;;;;;;49.20;41.63;;;;;;;7.95;100.00;102440.97;5095069;28;20020;-58
2023/04/17 04:40:11;;;;;;;46.60;40.40;;;;;;;8.00;100.00;102440.88;5094988;28;20383;-58
2023/04/17 04:42:40;;;;;;;44.15;38.20;;;;;;;8.15;100.00;102452.84;5094902;28;20024;-58
2023/04/17 04:45:08;;;;;;;45.92;38.72;;;;;;;8.27;99.75;102451.63;5094476;28;20031;-57
2023/04/17 04:47:34;;;;;;;45.28;38.97;;;;;;;8.26;99.23;102448.09;5094380;28;20024;-58
2023/04/17 04:50:00;;;;;;;44.22;39.40;;;;;;;8.31;99.14;102453.28;5094899;28;20035;-58
2023/04/17 04:52:25;;;;;;;44.55;39.40;;;;;;;8.32;98.63;102455.00;5094830;28;20032;-58
2023/04/17 04:54:51;;;;;;;46.53;39.03;;;;;;;8.22;98.98;102461.47;5094845;28;20034;-58
2023/04/17 04:57:16;;;;;;;44.42;37.58;;;;;;;8.17;99.27;102462.47;5093314;28;20523;-58
2023/04/17 04:59:45;;;;;;;47.65;39.25;;;;;;;8.02;100.00;102448.75;5094649;28;20138;-58
2023/04/17 05:02:10;;;;;;;43.17;38.45;;;;;;;8.04;100.00;102454.91;5094248;28;20074;-58
2023/04/17 05:04:36;;;;;;;51.35;40.42;;;;;;;7.92;100.00;102442.84;5094609;28;20503;-58
2023/04/17 05:07:03;;;;;;;50.38;42.78;;;;;;;7.95;100.00;102462.19;5094382;28;20031;-58
2023/04/17 05:09:30;;;;;;;47.33;40.20;;;;;;;7.99;100.00;102462.97;5094435;28;20116;-58
2023/04/17 05:11:56;;;;;;;48.15;41.33;;;;;;;8.05;100.00;102472.53;5094430;28;20024;-58
2023/04/17 05:14:21;;;;;;;48.83;40.83;;;;;;;8.02;100.00;102468.16;5094118;28;20020;-58
2023/04/17 05:16:46;;;;;;;49.00;40.60;;;;;;;8.07;100.00;102466.28;5093702;28;20035;-58
2023/04/17 05:19:15;;;;;;;50.65;41.22;;;;;;;8.00;100.00;102472.66;5094345;28;20166;-58
2023/04/17 05:21:43;;;;;;;50.58;42.13;;;;;;;7.92;100.00;102458.75;5093110;28;20059;-58
2023/04/17 05:24:08;;;;;;;49.70;41.95;;;;;;;7.99;100.00;102478.00;5096664;28;20467;-58
2023/04/17 05:26:33;;;;;;;50.03;42.40;;;;;;;8.01;100.00;102482.34;5092907;28;20703;-58
2023/04/17 05:28:59;;;;;;;49.78;41.53;;;;;;;8.06;100.00;102485.75;5112809;28;20050;-58
2023/04/17 05:31:25;;;;;;;50.22;41.22;;;;;;;8.03;100.00;102477.88;5108764;28;20023;-58
2023/04/17 05:33:50;;;;;;;47.00;41.15;;;;;;;8.06;100.00;102482.19;5104740;28;20322;-58
2023/04/17 05:36:15;;;;;;;49.67;42.00;;;;;;;8.05;100.00;102478.69;5093574;28;20435;-58
2023/04/17 05:38:46;;;;;;;47.58;41.55;;;;;;;8.05;100.00;102485.78;5094388;28;20032;-58
2023/04/17 05:41:11;;;;;;;49.75;42.92;;;;;;;8.03;100.00;102479.63;5095911;28;20027;-58
2023/04/17 05:43:36;;;;;;;48.72;41.60;;;;;;;8.03;100.00;102479.63;5093264;28;20046;-58
2023/04/17 05:46:02;;;;;;;50.53;42.25;;;;;;;7.99;100.00;102473.56;5092974;28;20077;-58
2023/04/17 05:48:28;;;;;;;50.88;43.47;;;;;;;8.02;100.00;102476.13;5093577;28;20398;-58
2023/04/17 05:50:54;;;;;;;49.47;43.60;;;;;;;8.14;100.00;102493.47;5092292;28;20043;-58
2023/04/17 05:53:20;;;;;;;52.95;43.58;;;;;;;8.17;100.00;102491.63;5094093;28;20041;-58
2023/04/17 05:55:45;;;;;;;48.78;43.03;;;;;;;8.09;100.00;102490.06;5095402;28;20028;-58
2023/04/17 05:58:10;;;;;;;52.45;44.97;;;;;;;8.17;100.00;102486.31;5093232;28;20020;-58
2023/04/17 06:00:36;;;;;;;50.25;43.97;;;;;;;8.24;100.00;102500.28;5092985;28;20463;-58
2023/04/17 06:03:01;;;;;;;50.47;43.97;;;;;;;8.16;100.00;102489.03;5093193;28;20398;-58
2023/04/17 06:05:27;;;;;;;55.85;44.55;;;;;;;8.07;100.00;102489.25;5092079;28;20035;-58
2023/04/17 06:07:52;;;;;;;52.53;44.25;;;;;;;8.09;100.00;102501.56;5091303;28;20032;-58
2023/04/17 06:10:18;;;;;;;55.10;45.55;;;;;;;8.02;100.00;102505.25;5099283;28;20760;-58
2023/04/17 06:12:44;;;;;;;52.13;43.63;;;;;;;8.15;100.00;102496.09;5103773;28;20031;-58
2023/04/17 06:15:10;;;;;;;55.15;44.60;;;;;;;8.03;100.00;102490.22;5111032;28;20047;-59
2023/04/17 06:17:37;;;;;;;54.78;44.22;;;;;;;8.10;100.00;102508.59;5107499;28;20110;-59
2023/04/17 06:20:09;;;;;;;50.78;44.17;;;;;;;8.05;100.00;102505.19;5113423;28;20587;-59
2023/04/17 06:22:35;;;;;;;55.30;46.25;;;;;;;8.10;100.00;102508.59;5112199;28;20478;-58
2023/04/17 06:25:03;;;;;;;53.58;44.80;;;;;;;8.12;100.00;102505.91;5112409;28;20024;-59
2023/04/17 06:27:29;;;;;;;57.72;46.13;;;;;;;8.18;100.00;102511.91;5110252;28;20470;-59
2023/04/17 06:29:54;;;;;;;53.22;44.67;;;;;;;8.23;100.00;102514.44;5112469;28;20030;-59
2023/04/17 06:32:20;;;;;;;54.35;43.67;;;;;;;8.24;100.00;102510.03;5111545;28;20028;-59
2023/04/17 06:34:45;;;;;;;56.20;45.40;;;;;;;8.11;100.00;102517.41;5112641;28;20027;-59
2023/04/17 06:37:11;;;;;;;53.72;43.17;;;;;;;8.18;100.00;102526.97;5110260;28;20097;-59
2023/04/17 06:39:36;;;;;;;52.15;44.45;;;;;;;8.14;100.00;102519.97;5113281;28;20019;-58
2023/04/17 06:42:02;;;;;;;57.08;46.97;;;;;;;8.14;100.00;102525.28;5112581;28;20028;-59
2023/04/17 06:44:27;;;;;;;55.72;45.55;;;;;;;8.16;100.00;102523.47;5113031;28;20023;-59
2023/04/17 06:46:53;;;;;;;58.95;46.72;;;;;;;8.27;100.00;102521.41;5112602;28;20298;-59
2023/04/17 06:49:19;;;;;;;56.25;47.10;;;;;;;8.24;100.00;102525.94;5113005;28;20023;-59
2023/04/17 06:51:46;;;;;;;58.22;47.95;;;;;;;8.24;100.00;102528.59;5109749;28;20068;-58
2023/04/17 06:54:12;;;;;;;56.50;45.08;;;;;;;8.29;100.00;102522.22;5090490;28;20040;-58
2023/04/17 06:56:37;;;;;;;57.50;46.47;;;;;;;8.30;100.00;102529.28;5075099;28;20028;-58
2023/04/17 06:59:03;;;;;;;61.25;48.17;;;;;;;8.32;100.00;102531.88;5090726;28;20046;-58
2023/04/17 07:01:30;;;;;;;55.85;46.92;;;;;;;8.33;100.00;102531.00;5102699;28;20390;-58
2023/04/17 07:03:55;;;;;;;52.47;44.75;;;;;;;8.23;100.00;102543.59;5096194;28;20053;-58
2023/04/17 07:06:23;;;;;;;59.88;47.47;;;;;;;8.26;100.00;102534.69;5096621;28;20032;-58
2023/04/17 07:08:48;;;;;;;58.40;45.47;;;;;;;8.27;100.00;102539.97;5087714;28;20024;-59
2023/04/17 07:11:14;;;;;;;53.78;45.22;;;;;;;8.32;100.00;102553.94;5101369;28;20106;-58
2023/04/17 07:13:39;;;;;;;54.58;44.90;;;;;;;8.31;100.00;102543.41;5089776;28;20131;-58
2023/04/17 07:16:05;;;;;;;57.53;46.13;;;;;;;8.38;99.71;102544.97;5093837;28;20111;-58
2023/04/17 07:18:30;;;;;;;54.53;44.88;;;;;;;8.40;99.57;102548.50;5092316;28;20023;-58
2023/04/17 07:20:56;;;;;;;56.58;45.95;;;;;;;8.32;100.00;102553.94;5090658;28;20024;-58
2023/04/17 07:23:22;;;;;;;54.85;47.03;;;;;;;8.27;100.00;102549.72;5092772;28;20046;-58
2023/04/17 07:25:47;;;;;;;58.88;47.08;;;;;;;8.29;100.00;102554.03;5090577;28;20016;-58
2023/04/17 07:28:13;;;;;;;53.30;45.80;;;;;;;8.33;99.96;102568.09;5095796;28;20032;-58
2023/04/17 07:30:40;;;;;;;55.30;45.10;;;;;;;8.30;99.95;102570.84;5092811;28;20042;-58
2023/04/17 07:33:05;;;;;;;59.15;47.42;;;;;;;8.34;99.77;102568.03;5095078;28;20035;-58
2023/04/17 07:35:31;;;;;;;55.85;45.33;;;;;;;8.37;99.81;102573.25;5091463;28;20016;-58
2023/04/17 07:37:57;;;;;;;53.10;45.95;;;;;;;8.41;99.06;102572.31;5091924;28;20480;-59
2023/04/17 07:40:23;;;;;;;53.15;45.42;;;;;;;8.40;99.58;102564.41;5092306;28;20030;-58
2023/04/17 07:42:48;;;;;;;55.55;46.35;;;;;;;8.50;98.75;102571.22;5112167;28;20302;-58
2023/04/17 07:45:16;;;;;;;51.10;44.90;;;;;;;8.66;98.18;102558.41;5109680;28;20387;-58
2023/04/17 07:47:45;;;;;;;55.47;47.03;;;;;;;8.61;97.60;102569.13;5112545;27;20099;-58
2023/04/17 07:50:10;;;;;;;55.63;46.42;;;;;;;8.72;97.45;102557.38;5116275;28;20019;-58
2023/04/17 07:52:35;;;;;;;51.80;45.85;;;;;;;8.84;96.85;102570.28;5115058;28;20547;-58
2023/04/17 07:55:01;;;;;;;53.38;46.40;;;;;;;8.84;96.63;102568.50;5112495;28;20405;-58
2023/04/17 07:57:26;;;;;;;53.50;47.13;;;;;;;8.81;96.49;102575.66;5114879;28;20080;-58
2023/04/17 07:59:54;;;;;;;57.22;47.35;;;;;;;8.85;96.64;102574.66;5114867;28;20172;-58
2023/04/17 08:02:20;;;;;;;54.97;47.83;;;;;;;8.71;96.61;102571.56;5114253;28;20019;-58
2023/04/17 08:04:45;;;;;;;56.83;49.67;;;;;;;8.69;97.04;102582.19;5113491;28;20023;-58
2023/04/17 08:07:11;;;;;;;57.25;47.47;;;;;;;8.68;97.43;102576.91;5113234;28;20527;-58
2023/04/17 08:09:38;;;;;;;56.22;48.58;;;;;;;8.69;97.53;102581.31;5096891;28;20048;-58
2023/04/17 08:12:04;;;;;;;62.78;49.50;;;;;;;8.69;97.09;102578.66;5110281;28;20066;-59
2023/04/17 08:14:32;;;;;;;56.05;47.90;;;;;;;8.78;98.01;102578.41;5116048;28;20015;-58
2023/04/17 08:16:57;;;;;;;56.35;49.97;;;;;;;8.85;96.85;102572.00;5113313;28;20422;-58
2023/04/17 08:19:22;;;;;;;55.28;47.38;;;;;;;8.98;95.67;102585.81;5113562;28;20110;-58
2023/04/17 08:21:49;;;;;;;52.25;46.53;;;;;;;9.10;95.00;102582.81;5115666;28;20026;-58
2023/04/17 08:24:16;;;;;;;50.42;44.92;;;;;;;9.08;95.21;102581.97;5113443;28;20027;-58
2023/04/17 08:26:41;;;;;;;49.30;43.83;;;;;;;9.10;95.47;102585.47;5114544;28;20016;-58
2023/04/17 08:29:07;;;;;;;47.83;42.80;;;;;;;9.21;94.33;102586.03;5115890;28;20024;-58
2023/04/17 08:31:35;;;;;;;46.03;41.03;;;;;;;9.29;93.28;102592.00;5115664;28;20031;-58
2023/04/17 08:34:01;;;;;;;45.63;40.70;;;;;;;9.29;91.72;102583.13;5113556;28;20024;-58
2023/04/17 08:36:27;;;;;;;44.65;39.83;;;;;;;9.31;91.27;102586.63;5114142;28;20024;-58
2023/04/17 08:38:52;;;;;;;44.83;40.20;;;;;;;9.38;91.04;102593.47;5112133;28;20385;-58
2023/04/17 08:41:21;;;;;;;44.90;39.95;;;;;;;9.40;91.59;102593.44;5102060;28;20035;-58
2023/04/17 08:43:49;;;;;;;43.72;38.95;;;;;;;9.35;91.31;102588.25;5113162;28;20104;-58
2023/04/17 08:46:15;;;;;;;45.33;40.45;;;;;;;9.42;91.55;102586.31;5110016;28;20434;-58
2023/04/17 08:48:41;;;;;;;46.03;39.13;;;;;;;9.33;91.12;102595.41;5105605;28;20034;-58
2023/04/17 08:51:07;;;;;;;43.95;39.38;;;;;;;9.40;90.72;102589.00;5112549;28;20379;-58
2023/04/17 08:53:32;;;;;;;44.05;38.17;;;;;;;9.36;89.88;102591.81;5114914;28;20035;-58
2023/04/17 08:56:03;;;;;;;44.50;39.78;;;;;;;9.37;90.98;102591.75;5112582;28;20134;-58
2023/04/17 08:58:33;;;;;;;45.22;40.30;;;;;;;9.39;90.33;102584.59;5113375;28;20043;-58
2023/04/17 09:01:14;;;;;;;41.47;37.00;;;;;;;9.52;91.05;102582.44;5114271;28;20031;-58
2023/04/17 09:03:42;;;;;;;43.97;39.22;;;;;;;9.54;90.13;102597.41;5108817;28;20078;-58
2023/04/17 09:06:10;;;;;;;46.92;37.75;;;;;;;9.62;89.28;102599.84;5094308;28;20031;-58
2023/04/17 09:08:52;;;;;;;46.67;41.58;;;;;;;9.72;89.10;102593.31;5094726;28;20028;-58
2023/04/17 09:11:18;;;;;;;45.55;39.97;;;;;;;9.83;89.49;102595.66;5091919;28;20020;-58
2023/04/17 09:13:44;;;;;;;47.80;41.08;;;;;;;9.80;88.92;102590.44;5094364;28;20027;-58
2023/04/17 09:16:15;;;;;;;44.88;39.60;;;;;;;9.85;88.22;102591.13;5094987;28;20024;-61
2023/04/17 09:18:41;;;;;;;46.85;39.35;;;;;;;9.83;89.00;102598.31;5110230;28;20042;-58
2023/04/17 09:21:08;;;;;;;45.83;40.85;;;;;;;9.83;89.19;102598.31;5092181;28;20059;-58
2023/04/17 09:23:54;;;;;;;45.58;39.47;;;;;;;9.98;88.81;102602.25;5099503;28;20032;-58
2023/04/17 09:26:24;;;;;;;45.38;40.47;;;;;;;10.05;88.22;102595.81;5093422;28;20024;-58
2023/04/17 09:29:16;;;;;;;44.30;38.95;;;;;;;10.15;87.46;102605.25;5093796;28;20070;-58
2023/04/17 09:31:43;;;;;;;44.45;39.67;;;;;;;10.11;86.90;102597.41;5090125;28;20043;-58
2023/04/17 09:34:14;;;;;;;44.67;39.70;;;;;;;10.20;87.10;102594.44;5097481;28;20040;-58
2023/04/17 09:36:42;;;;;;;46.03;39.10;;;;;;;10.40;85.57;102593.78;5104224;28;20035;-58
2023/04/17 09:39:19;;;;;;;45.05;40.13;;;;;;;10.56;84.63;102594.13;5092522;28;20115;-58
2023/04/17 09:41:45;;;;;;;46.10;41.10;;;;;;;10.62;85.28;102592.13;5093248;28;20029;-58
2023/04/17 09:44:22;;;;;;;42.00;37.45;;;;;;;10.69;83.21;102588.31;5101691;28;20027;-58
2023/04/17 09:46:48;;;;;;;43.55;38.97;;;;;;;10.94;82.41;102592.75;5090492;28;20016;-58
2023/04/17 09:49:41;;;;;;;42.72;38.30;;;;;;;11.16;82.91;102598.16;5101041;28;20031;-58
2023/04/17 09:52:07;;;;;;;43.40;38.42;;;;;;;11.24;81.57;102596.09;5092877;28;20055;-58
2023/04/17 09:54:36;;;;;;;42.33;37.88;;;;;;;11.39;81.25;102591.97;5091679;28;20219;-58
2023/04/17 09:57:03;;;;;;;41.78;37.58;;;;;;;11.63;79.39;102597.28;5094793;28;20037;-58
2023/04/17 09:59:30;;;;;;;43.55;38.92;;;;;;;11.85;79.90;102595.50;5097212;28;20026;-59
2023/04/17 10:01:59;;;;;;;41.67;37.28;;;;;;;12.10;78.66;102591.88;5094906;28;20028;-58
2023/04/17 10:04:25;;;;;;;;;;;;;;;12.38;79.07;102597.78;5092708;28;20139;-58
2023/04/17 10:06:51;;;;;;;40.85;36.47;;;;;;;12.26;77.57;102588.50;5093912;28;20007;-58
2023/04/17 10:09:16;;;;;;;41.72;37.33;;;;;;;12.36;76.35;102593.44;5098188;28;20077;-58
2023/04/17 10:11:46;;;;;;;42.65;37.50;;;;;;;12.20;76.32;102591.41;5091897;28;20402;-59
2023/04/17 10:14:25;;;;;;;39.63;35.63;;;;;;;12.02;77.26;102584.16;5098088;28;20115;-58
2023/04/17 10:16:51;;;;;;;40.38;36.15;;;;;;;12.04;76.63;102572.50;5099793;28;20035;-59
2023/04/17 10:19:29;;;;;;;40.35;35.00;;;;;;;12.22;77.22;102588.69;5089620;28;20039;-58
2023/04/17 10:22:16;;;;;;;41.28;35.45;;;;;;;12.62;74.43;102579.84;5097885;28;20432;-58
2023/04/17 10:24:46;;;;;;;38.35;34.35;;;;;;;13.00;72.57;102582.59;5089754;28;20038;-59
2023/04/17 10:27:41;;;;;;;38.58;32.50;;;;;;;13.20;72.50;102584.34;5099530;28;20023;-58
2023/04/17 10:30:10;;;;;;;39.95;35.75;;;;;;;13.18;71.94;102589.78;5098881;28;20069;-58
2023/04/17 10:32:36;;;;;;;;;;;;;;;13.48;71.94;102585.78;5075855;28;20467;-58
2023/04/17 10:35:16;;;;;;;37.75;33.20;;;;;;;13.51;68.92;102586.50;5090643;28;19923;-58
2023/04/17 10:37:49;;;;;;;35.38;31.60;;;;;;;13.66;66.83;102590.22;5097763;28;20049;-58
2023/04/17 10:40:26;;;;;;;34.67;29.90;;;;;;;13.79;67.34;102586.00;5102147;28;20030;-59
2023/04/17 10:43:03;;;;;;;36.50;32.53;;;;;;;13.75;67.34;102588.91;5096726;28;20039;-58
2023/04/17 10:45:56;;;;;;;38.15;32.25;;;;;;;13.60;66.42;102583.38;5102012;28;20117;-58
2023/04/17 10:48:51;;;;;;;35.75;31.27;;;;;;;13.51;66.06;102591.84;5093671;28;20024;-59
2023/04/17 10:51:22;;;;;;;34.00;30.33;;;;;;;13.47;64.44;102581.34;5095539;28;20107;-58
2023/04/17 10:53:48;;;;;;;34.45;29.85;;;;;;;13.78;65.30;102578.06;5090708;28;20092;-59
2023/04/17 10:56:38;;;;;;;38.58;30.27;;;;;;;14.17;64.70;102569.88;5094233;28;20492;-59
2023/04/17 10:59:04;;;;;;;31.92;28.52;;;;;;;14.12;62.69;102579.97;5088671;28;20044;-58
2023/04/17 11:01:46;;;;;;;32.88;28.90;;;;;;;14.03;62.45;102581.28;5096640;28;20073;-59
2023/04/17 11:04:32;;;;;;;36.78;29.50;;;;;;;13.83;62.97;102573.38;5090474;28;20044;-58
2023/04/17 11:06:59;;;;;;;32.63;29.25;;;;;;;13.84;62.99;102567.94;5103448;27;20565;-58
2023/04/17 11:09:28;;;;;;;37.35;30.48;;;;;;;14.27;61.82;102579.19;5104827;27;20479;-58
2023/04/17 11:11:56;;;;;;;34.10;30.65;;;;;;;14.73;62.91;102574.13;5087739;28;20062;-59
2023/04/17 11:14:22;;;;;;;34.78;31.02;;;;;;;15.02;62.03;102562.81;5091596;28;20016;-58
2023/04/17 11:16:49;;;;;;;34.15;29.95;;;;;;;14.99;61.01;102567.38;5090779;28;20026;-59